Terminal Aerodrome Forecast
Issued by NWS

Home | Current Version | Previous Version | Text Only | Print | Product List | Glossary On
Versions: 1 2 3 4 5 6 7 8 9 10 11 12 13 14 15 16 17 18 19 20 21 22 23 24 25 26 27 28 29 30 31 32 33 34 35 36 37 38 39 40 41 42 43 44 45 46 47 48 49 50
698
FTUS41 KCTP 061036 AAA
TAFBFD
TAF AMD
KBFD 061036Z 0611/0706 18004KT 6SM -SHSN BKN025 OVC080
      TEMPO 0611/0613 3SM -SHSN OVC015
     FM061300 22009G17KT P6SM VCSH OVC020
     FM061700 26012G19KT 2SM -SNRA OVC010
     FM062000 30012G19KT 6SM -SHSN OVC015
     FM070300 30007KT P6SM VCSH BKN020 OVC030=

USA.gov is the U.S. government's official web portal to all federal, state and local government web resources and services.